sensor_id;sensor_type;location;lat;lon;timestamp;pressure;altitude;pressure_sealevel;temperature;humidity
76973;BME280;65907;53.640;10.050;2023-12-29T00:01:06;100082.91;;;19.29;46.27
76973;BME280;65907;53.640;10.050;2023-12-29T00:03:32;100093.78;;;19.34;46.06
76973;BME280;65907;53.640;10.050;2023-12-29T00:05:57;100090.19;;;19.35;46.19
76973;BME280;65907;53.640;10.050;2023-12-29T00:08:22;100087.19;;;19.30;45.92
76973;BME280;65907;53.640;10.050;2023-12-29T00:10:47;100081.28;;;19.28;45.83
76973;BME280;65907;53.640;10.050;2023-12-29T00:13:12;100085.53;;;19.29;45.66
76973;BME280;65907;53.640;10.050;2023-12-29T00:15:38;100080.00;;;19.23;46.30
76973;BME280;65907;53.640;10.050;2023-12-29T00:18:03;100087.41;;;19.17;46.63
76973;BME280;65907;53.640;10.050;2023-12-29T00:20:28;100094.16;;;19.20;46.36
76973;BME280;65907;53.640;10.050;2023-12-29T00:22:54;100086.34;;;19.20;46.46
76973;BME280;65907;53.640;10.050;2023-12-29T00:25:23;100074.81;;;19.23;46.20
76973;BME280;65907;53.640;10.050;2023-12-29T00:27:48;100079.47;;;19.19;46.27
76973;BME280;65907;53.640;10.050;2023-12-29T00:30:14;100073.56;;;19.17;46.20
76973;BME280;65907;53.640;10.050;2023-12-29T00:32:40;100075.03;;;19.10;46.30
76973;BME280;65907;53.640;10.050;2023-12-29T00:35:05;100046.66;;;19.16;46.16
76973;BME280;65907;53.640;10.050;2023-12-29T00:37:30;100071.34;;;19.12;46.40
76973;BME280;65907;53.640;10.050;2023-12-29T00:39:55;100071.63;;;19.09;46.83
76973;BME280;65907;53.640;10.050;2023-12-29T00:42:21;100067.91;;;19.12;46.08
76973;BME280;65907;53.640;10.050;2023-12-29T00:44:46;100062.28;;;19.06;46.47
76973;BME280;65907;53.640;10.050;2023-12-29T00:47:13;100055.03;;;19.10;46.39
76973;BME280;65907;53.640;10.050;2023-12-29T00:49:39;100050.78;;;19.09;46.45
76973;BME280;65907;53.640;10.050;2023-12-29T00:52:05;100041.69;;;19.03;46.63
76973;BME280;65907;53.640;10.050;2023-12-29T00:54:30;100039.09;;;19.03;46.65
76973;BME280;65907;53.640;10.050;2023-12-29T00:56:55;100049.63;;;19.02;46.58
76973;BME280;65907;53.640;10.050;2023-12-29T00:59:20;100032.91;;;19.04;46.39
76973;BME280;65907;53.640;10.050;2023-12-29T01:01:46;100014.56;;;19.06;46.51
76973;BME280;65907;53.640;10.050;2023-12-29T01:04:11;100026.34;;;19.10;46.50
76973;BME280;65907;53.640;10.050;2023-12-29T01:06:36;100022.38;;;19.06;46.35
76973;BME280;65907;53.640;10.050;2023-12-29T01:09:02;100029.34;;;19.05;46.51
76973;BME280;65907;53.640;10.050;2023-12-29T01:11:27;100037.56;;;19.01;46.77
76973;BME280;65907;53.640;10.050;2023-12-29T01:13:52;100023.44;;;19.03;46.30
76973;BME280;65907;53.640;10.050;2023-12-29T01:16:17;100031.28;;;19.03;46.38
76973;BME280;65907;53.640;10.050;2023-12-29T01:18:43;100020.50;;;18.97;46.57
76973;BME280;65907;53.640;10.050;2023-12-29T01:21:08;100029.06;;;18.99;46.55
76973;BME280;65907;53.640;10.050;2023-12-29T01:23:33;100029.28;;;18.96;46.67
76973;BME280;65907;53.640;10.050;2023-12-29T01:25:58;100028.31;;;18.97;46.65
76973;BME280;65907;53.640;10.050;2023-12-29T01:28:23;100024.75;;;18.98;46.33
76973;BME280;65907;53.640;10.050;2023-12-29T01:30:50;100019.13;;;18.92;46.45
76973;BME280;65907;53.640;10.050;2023-12-29T01:33:16;100029.44;;;18.94;46.76
76973;BME280;65907;53.640;10.050;2023-12-29T01:35:41;100026.94;;;18.92;46.41
76973;BME280;65907;53.640;10.050;2023-12-29T01:38:07;100026.56;;;18.97;46.44
76973;BME280;65907;53.640;10.050;2023-12-29T01:40:32;100034.88;;;18.91;46.48
76973;BME280;65907;53.640;10.050;2023-12-29T01:42:57;100027.78;;;18.93;46.26
76973;BME280;65907;53.640;10.050;2023-12-29T01:45:23;100020.22;;;18.90;46.56
76973;BME280;65907;53.640;10.050;2023-12-29T01:47:49;100014.03;;;18.91;46.60
76973;BME280;65907;53.640;10.050;2023-12-29T01:50:15;100011.44;;;18.91;46.36
76973;BME280;65907;53.640;10.050;2023-12-29T01:52:40;100007.19;;;18.90;46.48
76973;BME280;65907;53.640;10.050;2023-12-29T01:55:07;100001.97;;;18.90;46.41
76973;BME280;65907;53.640;10.050;2023-12-29T01:57:35;100001.75;;;18.93;46.29
76973;BME280;65907;53.640;10.050;2023-12-29T02:00:01;99999.38;;;18.90;46.34
76973;BME280;65907;53.640;10.050;2023-12-29T02:02:26;100002.94;;;18.89;46.26
76973;BME280;65907;53.640;10.050;2023-12-29T02:04:52;99994.56;;;18.85;46.64
76973;BME280;65907;53.640;10.050;2023-12-29T02:07:17;100008.56;;;18.84;46.62
76973;BME280;65907;53.640;10.050;2023-12-29T02:09:44;99998.69;;;18.88;46.64
76973;BME280;65907;53.640;10.050;2023-12-29T02:12:09;99987.84;;;18.83;46.35
76973;BME280;65907;53.640;10.050;2023-12-29T02:14:35;99982.50;;;18.84;46.50
76973;BME280;65907;53.640;10.050;2023-12-29T02:21:54;99976.47;;;18.84;46.37
76973;BME280;65907;53.640;10.050;2023-12-29T02:24:19;99971.13;;;18.85;46.32
76973;BME280;65907;53.640;10.050;2023-12-29T02:26:45;99972.50;;;18.89;46.46
76973;BME280;65907;53.640;10.050;2023-12-29T02:29:13;99964.81;;;18.88;46.31
76973;BME280;65907;53.640;10.050;2023-12-29T02:31:39;99965.50;;;18.80;46.24
76973;BME280;65907;53.640;10.050;2023-12-29T02:34:06;99968.53;;;18.85;46.62
76973;BME280;65907;53.640;10.050;2023-12-29T02:36:33;99965.09;;;18.85;46.34
76973;BME280;65907;53.640;10.050;2023-12-29T02:38:59;99955.19;;;18.78;46.63
76973;BME280;65907;53.640;10.050;2023-12-29T02:41:24;99964.78;;;18.78;46.35
76973;BME280;65907;53.640;10.050;2023-12-29T02:43:50;99954.25;;;18.80;46.56
76973;BME280;65907;53.640;10.050;2023-12-29T02:46:15;99942.75;;;18.82;46.34
76973;BME280;65907;53.640;10.050;2023-12-29T02:48:40;99945.47;;;18.81;46.56
76973;BME280;65907;53.640;10.050;2023-12-29T02:51:05;99936.84;;;18.80;46.18
76973;BME280;65907;53.640;10.050;2023-12-29T02:53:33;99942.59;;;18.84;46.45
76973;BME280;65907;53.640;10.050;2023-12-29T02:55:58;99965.63;;;18.78;46.40
76973;BME280;65907;53.640;10.050;2023-12-29T02:58:23;99940.56;;;18.87;46.19
76973;BME280;65907;53.640;10.050;2023-12-29T03:00:48;99944.66;;;18.80;46.42
76973;BME280;65907;53.640;10.050;2023-12-29T03:03:13;99951.63;;;18.80;46.34
76973;BME280;65907;53.640;10.050;2023-12-29T03:05:39;99940.53;;;18.77;46.50
76973;BME280;65907;53.640;10.050;2023-12-29T03:08:04;99939.31;;;18.82;46.28
76973;BME280;65907;53.640;10.050;2023-12-29T03:10:29;99947.50;;;18.77;46.40
76973;BME280;65907;53.640;10.050;2023-12-29T03:12:55;99950.00;;;18.78;46.17
76973;BME280;65907;53.640;10.050;2023-12-29T03:15:20;99933.00;;;18.74;46.38
76973;BME280;65907;53.640;10.050;2023-12-29T03:17:45;99927.34;;;18.79;46.22
76973;BME280;65907;53.640;10.050;2023-12-29T03:20:10;99923.00;;;18.80;46.55
76973;BME280;65907;53.640;10.050;2023-12-29T03:22:36;99910.09;;;18.78;46.31
76973;BME280;65907;53.640;10.050;2023-12-29T03:25:01;99907.09;;;18.83;46.40
76973;BME280;65907;53.640;10.050;2023-12-29T03:27:26;99915.28;;;18.78;46.15
76973;BME280;65907;53.640;10.050;2023-12-29T03:29:51;99911.50;;;18.82;46.04
76973;BME280;65907;53.640;10.050;2023-12-29T03:32:17;99912.31;;;18.83;46.37
76973;BME280;65907;53.640;10.050;2023-12-29T03:34:42;99904.63;;;18.81;46.39
76973;BME280;65907;53.640;10.050;2023-12-29T03:37:07;99902.16;;;18.80;45.99
76973;BME280;65907;53.640;10.050;2023-12-29T03:39:32;99915.59;;;18.85;46.24
76973;BME280;65907;53.640;10.050;2023-12-29T03:42:00;99921.34;;;18.78;46.24
76973;BME280;65907;53.640;10.050;2023-12-29T03:44:25;99893.66;;;18.77;46.28
76973;BME280;65907;53.640;10.050;2023-12-29T03:46:50;99925.00;;;18.66;46.25
76973;BME280;65907;53.640;10.050;2023-12-29T03:49:16;99929.53;;;18.74;46.40
76973;BME280;65907;53.640;10.050;2023-12-29T03:51:41;99921.63;;;18.75;46.51
76973;BME280;65907;53.640;10.050;2023-12-29T03:54:08;99909.56;;;18.74;46.12
76973;BME280;65907;53.640;10.050;2023-12-29T03:56:33;99923.81;;;18.70;46.48
76973;BME280;65907;53.640;10.050;2023-12-29T03:58:58;99926.41;;;18.70;46.50
76973;BME280;65907;53.640;10.050;2023-12-29T04:01:24;99913.13;;;18.73;46.26
76973;BME280;65907;53.640;10.050;2023-12-29T04:03:50;99916.22;;;18.67;46.21
76973;BME280;65907;53.640;10.050;2023-12-29T04:06:16;99924.59;;;18.71;46.20
76973;BME280;65907;53.640;10.050;2023-12-29T04:08:41;99908.97;;;18.71;46.33
76973;BME280;65907;53.640;10.050;2023-12-29T04:11:06;99881.84;;;18.73;46.15
76973;BME280;65907;53.640;10.050;2023-12-29T04:13:31;99883.22;;;18.68;46.42
76973;BME280;65907;53.640;10.050;2023-12-29T04:15:57;99880.50;;;18.69;46.23
76973;BME280;65907;53.640;10.050;2023-12-29T04:18:22;99894.69;;;18.65;46.56
76973;BME280;65907;53.640;10.050;2023-12-29T04:20:49;99874.84;;;18.74;46.20
76973;BME280;65907;53.640;10.050;2023-12-29T04:23:15;99879.09;;;18.65;46.53
76973;BME280;65907;53.640;10.050;2023-12-29T04:25:40;99882.38;;;18.67;46.18
76973;BME280;65907;53.640;10.050;2023-12-29T04:28:06;99883.50;;;18.74;45.96
76973;BME280;65907;53.640;10.050;2023-12-29T04:30:31;99885.28;;;18.74;46.12
76973;BME280;65907;53.640;10.050;2023-12-29T04:32:56;99891.16;;;18.66;46.36
76973;BME280;65907;53.640;10.050;2023-12-29T04:35:22;99897.47;;;18.73;46.30
76973;BME280;65907;53.640;10.050;2023-12-29T04:37:47;99893.50;;;18.69;46.09
76973;BME280;65907;53.640;10.050;2023-12-29T04:40:12;99899.41;;;18.71;45.81
76973;BME280;65907;53.640;10.050;2023-12-29T04:42:37;99895.28;;;18.69;46.08
76973;BME280;65907;53.640;10.050;2023-12-29T04:45:03;99898.25;;;18.64;46.11
76973;BME280;65907;53.640;10.050;2023-12-29T04:47:29;99889.66;;;18.63;46.19
76973;BME280;65907;53.640;10.050;2023-12-29T04:49:54;99887.47;;;18.69;45.98
76973;BME280;65907;53.640;10.050;2023-12-29T04:52:19;99906.06;;;18.64;46.36
76973;BME280;65907;53.640;10.050;2023-12-29T04:54:44;99901.06;;;18.72;45.77
76973;BME280;65907;53.640;10.050;2023-12-29T04:57:10;99911.84;;;18.68;46.23
76973;BME280;65907;53.640;10.050;2023-12-29T04:59:35;99906.06;;;18.64;46.23
76973;BME280;65907;53.640;10.050;2023-12-29T05:02:00;99899.91;;;18.65;46.16
76973;BME280;65907;53.640;10.050;2023-12-29T05:04:25;99915.00;;;18.61;46.27
76973;BME280;65907;53.640;10.050;2023-12-29T05:06:50;99910.91;;;18.69;45.97
76973;BME280;65907;53.640;10.050;2023-12-29T05:09:16;99921.19;;;18.70;45.91
76973;BME280;65907;53.640;10.050;2023-12-29T05:11:41;99907.31;;;18.60;46.22
76973;BME280;65907;53.640;10.050;2023-12-29T05:14:06;99895.94;;;18.61;45.96
76973;BME280;65907;53.640;10.050;2023-12-29T05:16:31;99899.91;;;18.65;46.14
76973;BME280;65907;53.640;10.050;2023-12-29T05:18:57;99910.50;;;18.73;45.67
76973;BME280;65907;53.640;10.050;2023-12-29T05:21:22;99896.91;;;18.70;46.11
76973;BME280;65907;53.640;10.050;2023-12-29T05:23:49;99910.06;;;18.68;46.03
76973;BME280;65907;53.640;10.050;2023-12-29T05:26:14;99901.28;;;18.59;46.03
76973;BME280;65907;53.640;10.050;2023-12-29T05:28:40;99909.78;;;18.61;46.32
76973;BME280;65907;53.640;10.050;2023-12-29T05:31:05;99918.81;;;18.57;46.43
76973;BME280;65907;53.640;10.050;2023-12-29T05:33:33;99906.34;;;18.61;46.29
76973;BME280;65907;53.640;10.050;2023-12-29T05:35:58;99896.91;;;18.70;46.02
76973;BME280;65907;53.640;10.050;2023-12-29T05:38:23;99911.47;;;18.72;45.74
76973;BME280;65907;53.640;10.050;2023-12-29T05:40:49;99905.72;;;18.78;45.92
76973;BME280;65907;53.640;10.050;2023-12-29T05:43:14;99898.47;;;18.82;45.94
76973;BME280;65907;53.640;10.050;2023-12-29T05:45:40;99909.03;;;18.90;45.41
76973;BME280;65907;53.640;10.050;2023-12-29T05:48:05;99897.94;;;18.88;45.78
76973;BME280;65907;53.640;10.050;2023-12-29T05:50:31;99893.97;;;18.94;45.58
76973;BME280;65907;53.640;10.050;2023-12-29T05:52:56;99889.56;;;18.95;45.23
76973;BME280;65907;53.640;10.050;2023-12-29T05:55:22;99893.69;;;18.97;45.27
76973;BME280;65907;53.640;10.050;2023-12-29T05:57:48;99903.31;;;19.06;45.47
76973;BME280;65907;53.640;10.050;2023-12-29T06:00:13;99889.91;;;19.11;45.13
76973;BME280;65907;53.640;10.050;2023-12-29T06:02:42;99896.34;;;19.17;44.94
76973;BME280;65907;53.640;10.050;2023-12-29T06:05:09;99899.50;;;19.20;44.99
76973;BME280;65907;53.640;10.050;2023-12-29T06:07:35;99893.59;;;19.18;44.96
76973;BME280;65907;53.640;10.050;2023-12-29T06:10:00;99895.22;;;19.19;45.14
76973;BME280;65907;53.640;10.050;2023-12-29T06:12:27;99899.22;;;19.24;44.82
76973;BME280;65907;53.640;10.050;2023-12-29T06:14:52;99914.03;;;19.23;45.01
76973;BME280;65907;53.640;10.050;2023-12-29T06:17:17;99911.28;;;19.25;44.72
76973;BME280;65907;53.640;10.050;2023-12-29T06:19:43;99911.16;;;19.26;44.83
76973;BME280;65907;53.640;10.050;2023-12-29T06:22:08;99907.19;;;19.32;44.51
76973;BME280;65907;53.640;10.050;2023-12-29T06:24:39;99903.34;;;19.36;44.75
76973;BME280;65907;53.640;10.050;2023-12-29T06:27:05;99911.97;;;19.37;44.57
76973;BME280;65907;53.640;10.050;2023-12-29T06:29:30;99908.97;;;19.41;44.71
76973;BME280;65907;53.640;10.050;2023-12-29T06:31:55;99911.28;;;19.44;44.35
76973;BME280;65907;53.640;10.050;2023-12-29T06:34:21;99898.25;;;19.44;44.38
76973;BME280;65907;53.640;10.050;2023-12-29T06:36:46;99915.41;;;19.47;44.61
76973;BME280;65907;53.640;10.050;2023-12-29T06:39:11;99910.19;;;19.57;44.32
76973;BME280;65907;53.640;10.050;2023-12-29T06:41:36;99903.34;;;19.56;44.16
76973;BME280;65907;53.640;10.050;2023-12-29T06:44:01;99900.28;;;19.60;43.87
76973;BME280;65907;53.640;10.050;2023-12-29T06:46:27;99901.81;;;19.63;44.03
76973;BME280;65907;53.640;10.050;2023-12-29T06:48:52;99899.06;;;19.65;44.06
76973;BME280;65907;53.640;10.050;2023-12-29T06:51:17;99895.63;;;19.64;43.84
76973;BME280;65907;53.640;10.050;2023-12-29T06:53:43;99892.75;;;19.57;44.32
76973;BME280;65907;53.640;10.050;2023-12-29T06:56:12;99902.50;;;19.65;44.08
76973;BME280;65907;53.640;10.050;2023-12-29T06:58:37;99912.13;;;19.65;43.83
76973;BME280;65907;53.640;10.050;2023-12-29T07:01:03;99910.03;;;19.68;43.77
76973;BME280;65907;53.640;10.050;2023-12-29T07:03:28;99898.91;;;19.66;44.14
76973;BME280;65907;53.640;10.050;2023-12-29T07:05:53;99920.34;;;19.70;44.14
76973;BME280;65907;53.640;10.050;2023-12-29T07:08:18;99922.56;;;19.65;44.20
76973;BME280;65907;53.640;10.050;2023-12-29T07:10:44;99911.16;;;19.66;44.10
76973;BME280;65907;53.640;10.050;2023-12-29T07:13:09;99925.84;;;19.67;44.20
76973;BME280;65907;53.640;10.050;2023-12-29T07:15:34;99935.59;;;19.65;44.22
76973;BME280;65907;53.640;10.050;2023-12-29T07:18:00;99932.16;;;19.64;44.30
76973;BME280;65907;53.640;10.050;2023-12-29T07:20:25;99928.84;;;19.62;44.43
76973;BME280;65907;53.640;10.050;2023-12-29T07:22:50;99933.25;;;19.61;43.89
76973;BME280;65907;53.640;10.050;2023-12-29T07:25:15;99924.03;;;19.57;44.38
76973;BME280;65907;53.640;10.050;2023-12-29T07:27:41;99916.78;;;19.61;44.28
76973;BME280;65907;53.640;10.050;2023-12-29T07:30:06;99925.69;;;19.58;44.33
76973;BME280;65907;53.640;10.050;2023-12-29T07:32:31;99915.41;;;19.57;44.09
76973;BME280;65907;53.640;10.050;2023-12-29T07:34:57;99921.16;;;19.60;44.26
76973;BME280;65907;53.640;10.050;2023-12-29T07:37:22;99922.69;;;19.63;44.18
76973;BME280;65907;53.640;10.050;2023-12-29T07:39:48;99905.25;;;19.63;44.24
76973;BME280;65907;53.640;10.050;2023-12-29T07:42:13;99932.69;;;19.68;44.01
76973;BME280;65907;53.640;10.050;2023-12-29T07:44:39;99939.41;;;19.70;44.23
76973;BME280;65907;53.640;10.050;2023-12-29T07:47:04;99936.53;;;19.73;43.94
76973;BME280;65907;53.640;10.050;2023-12-29T07:49:29;99947.78;;;19.74;43.80
76973;BME280;65907;53.640;10.050;2023-12-29T07:51:55;99941.75;;;19.73;43.82
76973;BME280;65907;53.640;10.050;2023-12-29T07:54:20;99939.69;;;19.77;43.97
76973;BME280;65907;53.640;10.050;2023-12-29T07:56:45;99952.19;;;19.73;43.92
76973;BME280;65907;53.640;10.050;2023-12-29T07:59:11;99951.06;;;19.76;43.90
76973;BME280;65907;53.640;10.050;2023-12-29T08:01:36;99945.06;;;19.75;43.90
76973;BME280;65907;53.640;10.050;2023-12-29T08:04:02;99968.38;;;19.77;43.91
76973;BME280;65907;53.640;10.050;2023-12-29T08:06:27;99965.75;;;19.77;43.73
76973;BME280;65907;53.640;10.050;2023-12-29T08:08:53;99967.56;;;19.76;43.97
76973;BME280;65907;53.640;10.050;2023-12-29T08:11:19;99969.22;;;19.77;43.93
76973;BME280;65907;53.640;10.050;2023-12-29T08:13:44;99973.47;;;19.78;43.72
76973;BME280;65907;53.640;10.050;2023-12-29T08:16:10;99975.22;;;19.78;43.84
76973;BME280;65907;53.640;10.050;2023-12-29T08:18:35;99970.00;;;19.78;43.97
76973;BME280;65907;53.640;10.050;2023-12-29T08:21:00;99973.47;;;19.78;44.07
76973;BME280;65907;53.640;10.050;2023-12-29T08:23:26;99961.50;;;19.76;43.82
76973;BME280;65907;53.640;10.050;2023-12-29T08:25:52;99975.38;;;19.76;44.00
76973;BME280;65907;53.640;10.050;2023-12-29T08:28:17;99979.66;;;19.68;44.52
76973;BME280;65907;53.640;10.050;2023-12-29T08:30:42;99994.34;;;19.59;44.67
76973;BME280;65907;53.640;10.050;2023-12-29T08:33:10;99973.34;;;19.41;44.95
76973;BME280;65907;53.640;10.050;2023-12-29T08:35:37;99987.06;;;19.43;45.01
76973;BME280;65907;53.640;10.050;2023-12-29T08:38:02;99977.44;;;19.43;44.93
76973;BME280;65907;53.640;10.050;2023-12-29T08:40:27;99991.31;;;19.44;44.66
76973;BME280;65907;53.640;10.050;2023-12-29T08:42:53;99974.69;;;19.45;44.67
76973;BME280;65907;53.640;10.050;2023-12-29T08:45:18;99972.22;;;19.43;44.76
76973;BME280;65907;53.640;10.050;2023-12-29T08:47:43;99967.00;;;19.33;45.19
76973;BME280;65907;53.640;10.050;2023-12-29T08:50:08;99968.13;;;19.41;45.02
76973;BME280;65907;53.640;10.050;2023-12-29T08:52:34;99963.97;;;19.38;45.12
76973;BME280;65907;53.640;10.050;2023-12-29T08:54:59;99971.13;;;19.36;45.10
76973;BME280;65907;53.640;10.050;2023-12-29T08:57:24;99953.69;;;19.37;45.11
76973;BME280;65907;53.640;10.050;2023-12-29T08:59:49;99946.56;;;19.39;45.41
76973;BME280;65907;53.640;10.050;2023-12-29T09:02:16;99946.81;;;19.35;45.18
76973;BME280;65907;53.640;10.050;2023-12-29T09:04:41;99941.34;;;19.39;45.58
76973;BME280;65907;53.640;10.050;2023-12-29T09:07:06;99952.47;;;19.41;45.38
76973;BME280;65907;53.640;10.050;2023-12-29T09:09:32;99941.78;;;19.44;45.49
76973;BME280;65907;53.640;10.050;2023-12-29T09:11:57;99942.28;;;19.57;45.09
76973;BME280;65907;53.640;10.050;2023-12-29T09:14:22;99944.91;;;19.47;45.54
76973;BME280;65907;53.640;10.050;2023-12-29T09:16:47;99950.25;;;19.36;45.65
76973;BME280;65907;53.640;10.050;2023-12-29T09:19:13;99956.28;;;19.66;44.97
76973;BME280;65907;53.640;10.050;2023-12-29T09:21:38;99951.91;;;19.57;45.14
76973;BME280;65907;53.640;10.050;2023-12-29T09:24:03;99941.91;;;19.52;45.52
76973;BME280;65907;53.640;10.050;2023-12-29T09:26:29;99970.00;;;19.48;45.34
76973;BME280;65907;53.640;10.050;2023-12-29T09:28:54;99963.44;;;19.54;45.20
76973;BME280;65907;53.640;10.050;2023-12-29T09:31:20;99978.94;;;19.36;46.09
76973;BME280;65907;53.640;10.050;2023-12-29T09:33:45;99975.66;;;19.44;45.81
76973;BME280;65907;53.640;10.050;2023-12-29T09:36:10;99967.56;;;19.47;45.53
76973;BME280;65907;53.640;10.050;2023-12-29T09:38:35;99967.56;;;19.37;45.69
76973;BME280;65907;53.640;10.050;2023-12-29T09:41:04;99987.84;;;19.43;45.87
76973;BME280;65907;53.640;10.050;2023-12-29T09:43:31;99978.66;;;19.39;45.73
76973;BME280;65907;53.640;10.050;2023-12-29T09:45:56;99985.69;;;19.39;45.52
76973;BME280;65907;53.640;10.050;2023-12-29T09:48:23;99991.84;;;19.38;45.67
76973;BME280;65907;53.640;10.050;2023-12-29T09:50:51;100000.78;;;19.45;45.23
76973;BME280;65907;53.640;10.050;2023-12-29T09:53:20;100002.81;;;19.51;45.34
76973;BME280;65907;53.640;10.050;2023-12-29T09:55:46;100018.75;;;19.48;45.63
76973;BME280;65907;53.640;10.050;2023-12-29T09:58:13;99992.13;;;19.44;45.65
76973;BME280;65907;53.640;10.050;2023-12-29T10:00:40;99990.06;;;19.48;45.43
76973;BME280;65907;53.640;10.050;2023-12-29T10:03:07;99986.22;;;19.42;45.19
76973;BME280;65907;53.640;10.050;2023-12-29T10:05:36;99992.94;;;19.45;45.36
76973;BME280;65907;53.640;10.050;2023-12-29T10:08:01;99979.34;;;19.41;44.95
76973;BME280;65907;53.640;10.050;2023-12-29T10:10:28;99974.41;;;19.48;44.80
76973;BME280;65907;53.640;10.050;2023-12-29T10:12:57;99975.50;;;19.55;45.02
76973;BME280;65907;53.640;10.050;2023-12-29T10:15:26;99971.66;;;19.69;44.71
76973;BME280;65907;53.640;10.050;2023-12-29T10:23:17;99961.22;;;19.79;44.88
76973;BME280;65907;53.640;10.050;2023-12-29T10:25:43;99975.50;;;19.85;44.81
76973;BME280;65907;53.640;10.050;2023-12-29T10:28:09;99972.22;;;19.83;44.83
76973;BME280;65907;53.640;10.050;2023-12-29T10:30:35;99986.06;;;19.83;44.73
76973;BME280;65907;53.640;10.050;2023-12-29T10:33:00;99977.72;;;19.89;44.78
76973;BME280;65907;53.640;10.050;2023-12-29T10:35:26;99970.00;;;19.88;44.51
76973;BME280;65907;53.640;10.050;2023-12-29T10:37:51;99964.78;;;19.88;44.64
76973;BME280;65907;53.640;10.050;2023-12-29T10:40:17;99961.53;;;19.96;44.69
76973;BME280;65907;53.640;10.050;2023-12-29T10:42:52;99951.63;;;19.99;44.31
76973;BME280;65907;53.640;10.050;2023-12-29T10:45:18;99948.47;;;19.96;44.62
76973;BME280;65907;53.640;10.050;2023-12-29T10:47:43;99954.53;;;19.96;44.57
76973;BME280;65907;53.640;10.050;2023-12-29T10:50:09;99955.75;;;19.92;44.90
76973;BME280;65907;53.640;10.050;2023-12-29T10:52:34;99949.16;;;19.98;44.55
76973;BME280;65907;53.640;10.050;2023-12-29T10:55:09;99943.81;;;19.99;44.70
76973;BME280;65907;53.640;10.050;2023-12-29T10:57:37;99942.28;;;20.06;44.70
76973;BME280;65907;53.640;10.050;2023-12-29T11:00:03;99934.56;;;20.05;44.52
76973;BME280;65907;53.640;10.050;2023-12-29T11:02:29;99921.53;;;19.95;44.76
76973;BME280;65907;53.640;10.050;2023-12-29T11:05:04;99921.13;;;20.00;44.88
76973;BME280;65907;53.640;10.050;2023-12-29T11:07:33;99923.59;;;20.11;44.44
76973;BME280;65907;53.640;10.050;2023-12-29T11:10:05;99909.31;;;20.05;44.75
76973;BME280;65907;53.640;10.050;2023-12-29T11:12:32;99910.66;;;20.10;44.53
76973;BME280;65907;53.640;10.050;2023-12-29T11:14:57;99914.13;;;20.10;44.48
76973;BME280;65907;53.640;10.050;2023-12-29T11:17:25;99909.03;;;20.09;44.48
76973;BME280;65907;53.640;10.050;2023-12-29T11:19:52;99900.63;;;20.15;44.42
76973;BME280;65907;53.640;10.050;2023-12-29T11:22:17;99905.03;;;20.14;44.23
76973;BME280;65907;53.640;10.050;2023-12-29T11:24:42;99912.19;;;20.12;44.75
76973;BME280;65907;53.640;10.050;2023-12-29T11:27:07;99899.13;;;20.12;44.25
76973;BME280;65907;53.640;10.050;2023-12-29T11:29:33;99904.75;;;20.17;44.55
76973;BME280;65907;53.640;10.050;2023-12-29T11:31:59;99908.59;;;20.13;44.51
76973;BME280;65907;53.640;10.050;2023-12-29T11:34:34;99884.00;;;20.16;44.31
76973;BME280;65907;53.640;10.050;2023-12-29T11:37:16;99901.44;;;20.15;44.58
76973;BME280;65907;53.640;10.050;2023-12-29T11:39:57;99897.19;;;20.14;44.39
76973;BME280;65907;53.640;10.050;2023-12-29T11:42:30;99903.66;;;20.10;44.66
76973;BME280;65907;53.640;10.050;2023-12-29T11:44:58;99901.19;;;20.09;44.68
76973;BME280;65907;53.640;10.050;2023-12-29T11:47:36;99905.31;;;20.11;44.74
76973;BME280;65907;53.640;10.050;2023-12-29T11:50:04;99897.78;;;20.08;44.60
76973;BME280;65907;53.640;10.050;2023-12-29T11:52:39;99911.78;;;20.07;44.56
76973;BME280;65907;53.640;10.050;2023-12-29T11:55:10;99907.09;;;20.11;44.68
76973;BME280;65907;53.640;10.050;2023-12-29T11:57:36;99904.19;;;20.14;44.54
76973;BME280;65907;53.640;10.050;2023-12-29T12:00:02;99899.81;;;20.14;44.62
76973;BME280;65907;53.640;10.050;2023-12-29T12:02:30;99914.78;;;20.12;44.40
76973;BME280;65907;53.640;10.050;2023-12-29T12:04:55;99895.56;;;20.13;44.54
76973;BME280;65907;53.640;10.050;2023-12-29T12:09:51;99892.94;;;20.13;44.45
76973;BME280;65907;53.640;10.050;2023-12-29T12:15:03;99887.44;;;20.16;44.50
76973;BME280;65907;53.640;10.050;2023-12-29T12:17:35;99891.56;;;20.19;44.30
76973;BME280;65907;53.640;10.050;2023-12-29T12:22:28;99894.69;;;20.23;44.17
76973;BME280;65907;53.640;10.050;2023-12-29T12:24:58;99892.38;;;20.19;44.38
76973;BME280;65907;53.640;10.050;2023-12-29T12:27:26;99898.25;;;20.22;44.28
76973;BME280;65907;53.640;10.050;2023-12-29T12:29:56;99916.25;;;20.25;44.24
76973;BME280;65907;53.640;10.050;2023-12-29T12:32:24;99919.31;;;20.20;44.21
76973;BME280;65907;53.640;10.050;2023-12-29T12:34:49;99906.94;;;20.22;44.21
76973;BME280;65907;53.640;10.050;2023-12-29T12:37:24;99902.81;;;20.19;44.17
76973;BME280;65907;53.640;10.050;2023-12-29T12:39:51;99902.94;;;20.18;44.28
76973;BME280;65907;53.640;10.050;2023-12-29T12:42:17;99899.38;;;20.19;44.48
76973;BME280;65907;53.640;10.050;2023-12-29T12:44:54;99897.97;;;20.25;44.33
76973;BME280;65907;53.640;10.050;2023-12-29T12:47:24;99894.69;;;20.23;44.40
76973;BME280;65907;53.640;10.050;2023-12-29T12:49:51;99903.19;;;20.25;44.11
76973;BME280;65907;53.640;10.050;2023-12-29T12:52:18;99903.47;;;20.22;44.42
76973;BME280;65907;53.640;10.050;2023-12-29T12:54:43;99909.38;;;20.24;43.99
76973;BME280;65907;53.640;10.050;2023-12-29T12:57:09;99905.25;;;20.31;43.96
76973;BME280;65907;53.640;10.050;2023-12-29T12:59:34;99905.75;;;20.34;44.13